sensor_id;sensor_type;location;lat;lon;timestamp;pressure;altitude;pressure_sealevel;temperature;humidity
36828;BME280;22766;48.042;11.192;2024-01-30T00:02:17;96360.47;;;-1.20;100.00
36828;BME280;22766;48.042;11.192;2024-01-30T00:04:43;96361.41;;;-1.23;100.00
36828;BME280;22766;48.042;11.192;2024-01-30T00:07:10;96359.00;;;-1.27;100.00
36828;BME280;22766;48.042;11.192;2024-01-30T00:09:38;96355.50;;;-1.23;100.00
36828;BME280;22766;48.042;11.192;2024-01-30T00:12:06;96354.56;;;-1.21;100.00
36828;BME280;22766;48.042;11.192;2024-01-30T00:14:33;96355.50;;;-1.23;100.00
36828;BME280;22766;48.042;11.192;2024-01-30T00:17:00;96348.78;;;-1.24;100.00
36828;BME280;22766;48.042;11.192;2024-01-30T00:19:26;96360.66;;;-1.26;100.00
36828;BME280;22766;48.042;11.192;2024-01-30T00:21:53;96350.59;;;-1.28;100.00
36828;BME280;22766;48.042;11.192;2024-01-30T00:24:20;96360.56;;;-1.23;100.00
36828;BME280;22766;48.042;11.192;2024-01-30T00:26:47;96365.06;;;-1.31;100.00
36828;BME280;22766;48.042;11.192;2024-01-30T00:29:13;96363.50;;;-1.35;100.00
36828;BME280;22766;48.042;11.192;2024-01-30T00:31:46;96368.06;;;-1.46;100.00
36828;BME280;22766;48.042;11.192;2024-01-30T00:34:12;96360.41;;;-1.45;100.00
36828;BME280;22766;48.042;11.192;2024-01-30T00:36:40;96365.38;;;-1.42;100.00
36828;BME280;22766;48.042;11.192;2024-01-30T00:39:07;96372.31;;;-1.47;100.00
36828;BME280;22766;48.042;11.192;2024-01-30T00:41:35;96369.94;;;-1.53;100.00
36828;BME280;22766;48.042;11.192;2024-01-30T00:44:02;96372.81;;;-1.63;100.00
36828;BME280;22766;48.042;11.192;2024-01-30T00:46:29;96365.06;;;-1.59;100.00
36828;BME280;22766;48.042;11.192;2024-01-30T00:48:56;96366.97;;;-1.65;100.00
36828;BME280;22766;48.042;11.192;2024-01-30T00:51:23;96370.47;;;-1.71;100.00
36828;BME280;22766;48.042;11.192;2024-01-30T00:53:49;96368.16;;;-1.77;100.00
36828;BME280;22766;48.042;11.192;2024-01-30T00:56:16;96364.69;;;-1.74;100.00
36828;BME280;22766;48.042;11.192;2024-01-30T00:58:45;96369.91;;;-1.79;100.00
36828;BME280;22766;48.042;11.192;2024-01-30T01:01:11;96362.44;;;-1.83;100.00
36828;BME280;22766;48.042;11.192;2024-01-30T01:03:38;96365.97;;;-1.89;100.00
36828;BME280;22766;48.042;11.192;2024-01-30T01:06:07;96370.91;;;-1.84;100.00
36828;BME280;22766;48.042;11.192;2024-01-30T01:08:34;96370.63;;;-1.75;100.00
36828;BME280;22766;48.042;11.192;2024-01-30T01:11:01;96370.72;;;-1.78;100.00
36828;BME280;22766;48.042;11.192;2024-01-30T01:13:29;96380.66;;;-1.72;100.00
36828;BME280;22766;48.042;11.192;2024-01-30T01:15:58;96371.00;;;-1.88;100.00
36828;BME280;22766;48.042;11.192;2024-01-30T01:18:25;96371.00;;;-1.88;100.00
36828;BME280;22766;48.042;11.192;2024-01-30T01:20:52;96370.34;;;-1.94;100.00
36828;BME280;22766;48.042;11.192;2024-01-30T01:23:19;96370.34;;;-1.94;100.00
36828;BME280;22766;48.042;11.192;2024-01-30T01:25:46;96370.34;;;-1.94;100.00
36828;BME280;22766;48.042;11.192;2024-01-30T01:28:12;96371.25;;;-1.97;100.00
36828;BME280;22766;48.042;11.192;2024-01-30T01:30:39;96372.00;;;-1.93;100.00
36828;BME280;22766;48.042;11.192;2024-01-30T01:33:06;96372.97;;;-1.97;100.00
36828;BME280;22766;48.042;11.192;2024-01-30T01:35:33;96371.94;;;-1.90;100.00
36828;BME280;22766;48.042;11.192;2024-01-30T01:38:00;96366.94;;;-1.93;100.00
36828;BME280;22766;48.042;11.192;2024-01-30T01:40:27;96368.63;;;-1.94;100.00
36828;BME280;22766;48.042;11.192;2024-01-30T01:42:56;96374.00;;;-2.04;100.00
36828;BME280;22766;48.042;11.192;2024-01-30T01:45:22;96372.44;;;-2.08;100.00
36828;BME280;22766;48.042;11.192;2024-01-30T01:47:52;96376.06;;;-2.17;100.00
36828;BME280;22766;48.042;11.192;2024-01-30T01:50:21;96374.41;;;-2.18;100.00
36828;BME280;22766;48.042;11.192;2024-01-30T01:52:49;96377.63;;;-2.13;100.00
36828;BME280;22766;48.042;11.192;2024-01-30T01:55:17;96370.47;;;-1.99;100.00
36828;BME280;22766;48.042;11.192;2024-01-30T01:57:48;96370.44;;;-1.97;100.00
36828;BME280;22766;48.042;11.192;2024-01-30T02:00:15;96365.28;;;-1.94;100.00
36828;BME280;22766;48.042;11.192;2024-01-30T02:02:43;96376.22;;;-1.92;100.00
36828;BME280;22766;48.042;11.192;2024-01-30T02:05:12;96364.34;;;-1.92;100.00
36828;BME280;22766;48.042;11.192;2024-01-30T02:07:39;96368.63;;;-1.92;100.00
36828;BME280;22766;48.042;11.192;2024-01-30T02:10:07;96366.16;;;-1.95;100.00
36828;BME280;22766;48.042;11.192;2024-01-30T02:12:34;96364.41;;;-1.93;100.00
36828;BME280;22766;48.042;11.192;2024-01-30T02:15:01;96365.19;;;-1.91;100.00
36828;BME280;22766;48.042;11.192;2024-01-30T02:17:28;96361.03;;;-1.92;100.00
36828;BME280;22766;48.042;11.192;2024-01-30T02:19:55;96361.94;;;-1.95;100.00
36828;BME280;22766;48.042;11.192;2024-01-30T02:22:22;96365.31;;;-1.96;100.00
36828;BME280;22766;48.042;11.192;2024-01-30T02:24:50;96358.78;;;-2.03;100.00
36828;BME280;22766;48.042;11.192;2024-01-30T02:27:17;96359.88;;;-2.11;100.00
36828;BME280;22766;48.042;11.192;2024-01-30T02:29:44;96361.69;;;-2.16;100.00
36828;BME280;22766;48.042;11.192;2024-01-30T02:32:10;96362.63;;;-2.19;100.00
36828;BME280;22766;48.042;11.192;2024-01-30T02:34:37;96362.59;;;-2.17;100.00
36828;BME280;22766;48.042;11.192;2024-01-30T02:37:04;96371.00;;;-2.17;100.00
36828;BME280;22766;48.042;11.192;2024-01-30T02:39:32;96359.22;;;-2.18;100.00
36828;BME280;22766;48.042;11.192;2024-01-30T02:41:58;96356.78;;;-2.21;100.00
36828;BME280;22766;48.042;11.192;2024-01-30T02:44:25;96361.97;;;-2.25;100.00
36828;BME280;22766;48.042;11.192;2024-01-30T02:46:52;96354.25;;;-2.21;100.00
36828;BME280;22766;48.042;11.192;2024-01-30T02:49:21;96354.00;;;-2.12;100.00
36828;BME280;22766;48.042;11.192;2024-01-30T02:51:48;96359.75;;;-2.07;100.00
36828;BME280;22766;48.042;11.192;2024-01-30T02:54:15;96352.88;;;-2.03;100.00
36828;BME280;22766;48.042;11.192;2024-01-30T02:56:42;96354.50;;;-2.01;100.00
36828;BME280;22766;48.042;11.192;2024-01-30T02:59:09;96350.34;;;-2.03;100.00
36828;BME280;22766;48.042;11.192;2024-01-30T03:01:43;96344.50;;;-2.04;100.00
36828;BME280;22766;48.042;11.192;2024-01-30T03:04:11;96343.44;;;-1.97;100.00
36828;BME280;22766;48.042;11.192;2024-01-30T03:06:38;96350.41;;;-2.05;100.00
36828;BME280;22766;48.042;11.192;2024-01-30T03:09:05;96343.09;;;-2.14;100.00
36828;BME280;22766;48.042;11.192;2024-01-30T03:11:32;96338.97;;;-2.18;100.00
36828;BME280;22766;48.042;11.192;2024-01-30T03:13:59;96348.53;;;-2.27;100.00
36828;BME280;22766;48.042;11.192;2024-01-30T03:16:25;96342.91;;;-2.37;100.00
36828;BME280;22766;48.042;11.192;2024-01-30T03:18:53;96346.25;;;-2.36;100.00
36828;BME280;22766;48.042;11.192;2024-01-30T03:21:20;96350.50;;;-2.37;100.00
36828;BME280;22766;48.042;11.192;2024-01-30T03:23:49;96340.53;;;-2.41;100.00
36828;BME280;22766;48.042;11.192;2024-01-30T03:26:15;96342.25;;;-2.43;100.00
36828;BME280;22766;48.042;11.192;2024-01-30T03:28:42;96339.69;;;-2.42;100.00
36828;BME280;22766;48.042;11.192;2024-01-30T03:31:09;96343.69;;;-2.35;100.00
36828;BME280;22766;48.042;11.192;2024-01-30T03:33:39;96335.06;;;-2.28;100.00
36828;BME280;22766;48.042;11.192;2024-01-30T03:36:07;96337.34;;;-2.20;100.00
36828;BME280;22766;48.042;11.192;2024-01-30T03:38:34;96343.09;;;-2.14;100.00
36828;BME280;22766;48.042;11.192;2024-01-30T03:41:01;96342.91;;;-2.08;100.00
36828;BME280;22766;48.042;11.192;2024-01-30T03:43:30;96341.97;;;-2.05;100.00
36828;BME280;22766;48.042;11.192;2024-01-30T03:45:57;96337.75;;;-2.05;100.00
36828;BME280;22766;48.042;11.192;2024-01-30T03:48:24;96338.47;;;-2.00;100.00
36828;BME280;22766;48.042;11.192;2024-01-30T03:50:52;96336.69;;;-1.96;100.00
36828;BME280;22766;48.042;11.192;2024-01-30T03:53:19;96335.09;;;-2.00;100.00
36828;BME280;22766;48.042;11.192;2024-01-30T03:55:46;96332.56;;;-2.00;100.00
36828;BME280;22766;48.042;11.192;2024-01-30T03:58:13;96333.59;;;-2.06;100.00
36828;BME280;22766;48.042;11.192;2024-01-30T04:00:40;96335.41;;;-2.11;100.00
36828;BME280;22766;48.042;11.192;2024-01-30T04:03:07;96335.63;;;-2.18;100.00
36828;BME280;22766;48.042;11.192;2024-01-30T04:05:34;96342.56;;;-2.25;100.00
36828;BME280;22766;48.042;11.192;2024-01-30T04:08:01;96330.88;;;-2.29;100.00
36828;BME280;22766;48.042;11.192;2024-01-30T04:10:28;96334.47;;;-2.36;100.00
36828;BME280;22766;48.042;11.192;2024-01-30T04:12:55;96336.22;;;-2.39;100.00
36828;BME280;22766;48.042;11.192;2024-01-30T04:15:22;96337.09;;;-2.40;100.00
36828;BME280;22766;48.042;11.192;2024-01-30T04:17:49;96338.09;;;-2.46;100.00
36828;BME280;22766;48.042;11.192;2024-01-30T04:20:16;96328.00;;;-2.46;100.00
36828;BME280;22766;48.042;11.192;2024-01-30T04:22:46;96332.03;;;-2.40;100.00
36828;BME280;22766;48.042;11.192;2024-01-30T04:25:13;96332.88;;;-2.40;100.00
36828;BME280;22766;48.042;11.192;2024-01-30T04:27:40;96336.31;;;-2.42;100.00
36828;BME280;22766;48.042;11.192;2024-01-30T04:30:08;96335.47;;;-2.43;100.00
36828;BME280;22766;48.042;11.192;2024-01-30T04:32:35;96336.31;;;-2.42;100.00
36828;BME280;22766;48.042;11.192;2024-01-30T04:35:03;96334.75;;;-2.46;100.00
36828;BME280;22766;48.042;11.192;2024-01-30T04:37:37;96338.22;;;-2.50;100.00
36828;BME280;22766;48.042;11.192;2024-01-30T04:40:04;96332.53;;;-2.57;100.00
36828;BME280;22766;48.042;11.192;2024-01-30T04:42:32;96327.47;;;-2.57;100.00
36828;BME280;22766;48.042;11.192;2024-01-30T04:44:59;96333.38;;;-2.58;100.00
36828;BME280;22766;48.042;11.192;2024-01-30T04:47:25;96330.09;;;-2.61;100.00
36828;BME280;22766;48.042;11.192;2024-01-30T04:49:53;96335.03;;;-2.57;100.00
36828;BME280;22766;48.042;11.192;2024-01-30T04:52:20;96342.47;;;-2.52;100.00
36828;BME280;22766;48.042;11.192;2024-01-30T04:54:47;96341.50;;;-2.47;100.00
36828;BME280;22766;48.042;11.192;2024-01-30T04:57:14;96339.00;;;-2.48;100.00
36828;BME280;22766;48.042;11.192;2024-01-30T04:59:41;96344.13;;;-2.50;100.00
36828;BME280;22766;48.042;11.192;2024-01-30T05:02:08;96343.47;;;-2.58;100.00
36828;BME280;22766;48.042;11.192;2024-01-30T05:04:35;96339.53;;;-2.66;100.00
36828;BME280;22766;48.042;11.192;2024-01-30T05:07:04;96339.63;;;-2.71;100.00
36828;BME280;22766;48.042;11.192;2024-01-30T05:09:31;96331.25;;;-2.73;100.00
36828;BME280;22766;48.042;11.192;2024-01-30T05:12:01;96334.66;;;-2.74;100.00
36828;BME280;22766;48.042;11.192;2024-01-30T05:14:27;96334.72;;;-2.75;100.00
36828;BME280;22766;48.042;11.192;2024-01-30T05:16:54;96344.72;;;-2.72;100.00
36828;BME280;22766;48.042;11.192;2024-01-30T05:19:21;96343.25;;;-2.79;100.00
36828;BME280;22766;48.042;11.192;2024-01-30T05:21:50;96341.63;;;-2.82;100.00
36828;BME280;22766;48.042;11.192;2024-01-30T05:24:17;96338.28;;;-2.84;100.00
36828;BME280;22766;48.042;11.192;2024-01-30T05:26:46;96334.94;;;-2.85;100.00
36828;BME280;22766;48.042;11.192;2024-01-30T05:29:14;96345.00;;;-2.83;100.00
36828;BME280;22766;48.042;11.192;2024-01-30T05:32:06;96339.00;;;-2.79;100.00
36828;BME280;22766;48.042;11.192;2024-01-30T05:34:34;96339.94;;;-2.83;100.00
36828;BME280;22766;48.042;11.192;2024-01-30T05:37:01;96340.88;;;-2.86;100.00
36828;BME280;22766;48.042;11.192;2024-01-30T05:39:28;96342.50;;;-2.85;100.00
36828;BME280;22766;48.042;11.192;2024-01-30T05:41:55;96350.09;;;-2.85;100.00
36828;BME280;22766;48.042;11.192;2024-01-30T05:44:22;96355.94;;;-2.83;100.00
36828;BME280;22766;48.042;11.192;2024-01-30T05:46:48;96355.16;;;-2.85;100.00
36828;BME280;22766;48.042;11.192;2024-01-30T05:49:15;96358.56;;;-2.86;100.00
36828;BME280;22766;48.042;11.192;2024-01-30T05:51:42;96350.03;;;-2.83;100.00
36828;BME280;22766;48.042;11.192;2024-01-30T05:54:09;96355.97;;;-2.84;100.00
36828;BME280;22766;48.042;11.192;2024-01-30T05:56:40;96357.63;;;-2.83;100.00
36828;BME280;22766;48.042;11.192;2024-01-30T05:59:07;96361.19;;;-2.58;100.00
36828;BME280;22766;48.042;11.192;2024-01-30T06:01:34;96351.53;;;-2.44;100.00
36828;BME280;22766;48.042;11.192;2024-01-30T06:04:01;96352.59;;;-2.51;100.00
36828;BME280;22766;48.042;11.192;2024-01-30T06:06:28;96348.09;;;-2.41;100.00
36828;BME280;22766;48.042;11.192;2024-01-30T06:08:55;96350.16;;;-2.55;100.00
36828;BME280;22766;48.042;11.192;2024-01-30T06:11:22;96351.16;;;-2.61;100.00
36828;BME280;22766;48.042;11.192;2024-01-30T06:13:49;96349.38;;;-2.57;100.00
36828;BME280;22766;48.042;11.192;2024-01-30T06:16:16;96356.06;;;-2.55;100.00
36828;BME280;22766;48.042;11.192;2024-01-30T06:18:43;96363.00;;;-2.63;100.00
36828;BME280;22766;48.042;11.192;2024-01-30T06:21:10;96355.31;;;-2.58;100.00
36828;BME280;22766;48.042;11.192;2024-01-30T06:23:38;96354.13;;;-2.45;100.00
36828;BME280;22766;48.042;11.192;2024-01-30T06:26:09;96355.72;;;-2.43;100.00
36828;BME280;22766;48.042;11.192;2024-01-30T06:28:37;96356.06;;;-2.55;100.00
36828;BME280;22766;48.042;11.192;2024-01-30T06:31:04;96364.63;;;-2.60;100.00
36828;BME280;22766;48.042;11.192;2024-01-30T06:33:31;96362.97;;;-2.61;100.00
36828;BME280;22766;48.042;11.192;2024-01-30T06:35:58;96367.28;;;-2.65;100.00
36828;BME280;22766;48.042;11.192;2024-01-30T06:38:24;96374.22;;;-2.73;100.00
36828;BME280;22766;48.042;11.192;2024-01-30T06:40:51;96378.19;;;-2.63;100.00
36828;BME280;22766;48.042;11.192;2024-01-30T06:43:18;96373.53;;;-2.78;100.00
36828;BME280;22766;48.042;11.192;2024-01-30T06:45:45;96372.97;;;-2.91;100.00
36828;BME280;22766;48.042;11.192;2024-01-30T06:48:13;96378.97;;;-2.93;100.00
36828;BME280;22766;48.042;11.192;2024-01-30T06:50:39;96369.81;;;-2.97;100.00
36828;BME280;22766;48.042;11.192;2024-01-30T06:53:06;96379.75;;;-2.91;100.00
36828;BME280;22766;48.042;11.192;2024-01-30T06:55:33;96380.41;;;-2.85;100.00
36828;BME280;22766;48.042;11.192;2024-01-30T06:58:00;96376.84;;;-2.76;100.00
36828;BME280;22766;48.042;11.192;2024-01-30T07:00:27;96374.22;;;-2.73;100.00
36828;BME280;22766;48.042;11.192;2024-01-30T07:02:54;96375.72;;;-2.66;100.00
36828;BME280;22766;48.042;11.192;2024-01-30T07:05:21;96378.06;;;-2.58;100.00
36828;BME280;22766;48.042;11.192;2024-01-30T07:08:08;96373.88;;;-2.59;100.00
36828;BME280;22766;48.042;11.192;2024-01-30T07:10:45;96378.75;;;-2.53;100.00
36828;BME280;22766;48.042;11.192;2024-01-30T07:13:12;96379.47;;;-2.48;100.00
36828;BME280;22766;48.042;11.192;2024-01-30T07:15:39;96386.84;;;-2.41;100.00
36828;BME280;22766;48.042;11.192;2024-01-30T07:18:06;96387.59;;;-2.37;100.00
36828;BME280;22766;48.042;11.192;2024-01-30T07:23:16;96387.84;;;-2.16;100.00
36828;BME280;22766;48.042;11.192;2024-01-30T07:25:44;96381.72;;;-2.07;100.00
36828;BME280;22766;48.042;11.192;2024-01-30T07:28:20;96381.16;;;-1.89;100.00
36828;BME280;22766;48.042;11.192;2024-01-30T07:30:47;96385.69;;;-1.71;100.00
36828;BME280;22766;48.042;11.192;2024-01-30T07:33:22;96386.78;;;-1.52;100.00
36828;BME280;22766;48.042;11.192;2024-01-30T07:35:53;96384.06;;;-1.46;100.00
36828;BME280;22766;48.042;11.192;2024-01-30T07:38:20;96394.81;;;-1.38;100.00
36828;BME280;22766;48.042;11.192;2024-01-30T07:40:47;96384.66;;;-1.38;100.00
36828;BME280;22766;48.042;11.192;2024-01-30T07:43:14;96393.78;;;-1.32;100.00
36828;BME280;22766;48.042;11.192;2024-01-30T07:45:41;96391.84;;;-1.24;100.00
36828;BME280;22766;48.042;11.192;2024-01-30T07:48:08;96405.13;;;-1.16;100.00
36828;BME280;22766;48.042;11.192;2024-01-30T07:50:35;96397.16;;;-1.06;100.00
36828;BME280;22766;48.042;11.192;2024-01-30T07:53:02;96399.44;;;-0.98;100.00
36828;BME280;22766;48.042;11.192;2024-01-30T07:55:29;96398.91;;;-0.81;100.00
36828;BME280;22766;48.042;11.192;2024-01-30T07:57:58;96402.22;;;-0.79;100.00
36828;BME280;22766;48.042;11.192;2024-01-30T08:00:26;96399.34;;;-0.69;100.00
36828;BME280;22766;48.042;11.192;2024-01-30T08:02:53;96401.41;;;-0.55;100.00
36828;BME280;22766;48.042;11.192;2024-01-30T08:05:23;96403.19;;;-0.34;100.00
36828;BME280;22766;48.042;11.192;2024-01-30T08:07:51;96407.59;;;-0.15;100.00
36828;BME280;22766;48.042;11.192;2024-01-30T08:10:18;96404.34;;;0.05;100.00
36828;BME280;22766;48.042;11.192;2024-01-30T08:12:46;96402.59;;;0.30;100.00
36828;BME280;22766;48.042;11.192;2024-01-30T08:15:13;96403.44;;;0.52;100.00
36828;BME280;22766;48.042;11.192;2024-01-30T08:17:40;96404.09;;;0.79;100.00
36828;BME280;22766;48.042;11.192;2024-01-30T08:20:07;96393.94;;;0.99;100.00
36828;BME280;22766;48.042;11.192;2024-01-30T08:22:35;96392.78;;;1.28;100.00
36828;BME280;22766;48.042;11.192;2024-01-30T08:25:02;96399.97;;;1.58;100.00
36828;BME280;22766;48.042;11.192;2024-01-30T08:27:29;96401.47;;;1.82;100.00
36828;BME280;22766;48.042;11.192;2024-01-30T08:29:56;96396.88;;;2.11;100.00
36828;BME280;22766;48.042;11.192;2024-01-30T08:32:23;96398.13;;;2.39;100.00
36828;BME280;22766;48.042;11.192;2024-01-30T08:34:50;96399.72;;;2.77;100.00
36828;BME280;22766;48.042;11.192;2024-01-30T08:37:17;96393.59;;;3.17;100.00
36828;BME280;22766;48.042;11.192;2024-01-30T08:39:44;96400.50;;;3.49;100.00
36828;BME280;22766;48.042;11.192;2024-01-30T08:42:11;96402.09;;;3.85;100.00
36828;BME280;22766;48.042;11.192;2024-01-30T08:44:38;96399.72;;;4.30;100.00
36828;BME280;22766;48.042;11.192;2024-01-30T08:47:05;96404.63;;;4.50;100.00
36828;BME280;22766;48.042;11.192;2024-01-30T08:49:32;96398.44;;;4.85;100.00
36828;BME280;22766;48.042;11.192;2024-01-30T08:52:00;96403.97;;;5.09;100.00
36828;BME280;22766;48.042;11.192;2024-01-30T08:54:27;96406.22;;;5.58;100.00
36828;BME280;22766;48.042;11.192;2024-01-30T08:56:54;96409.63;;;5.89;100.00
36828;BME280;22766;48.042;11.192;2024-01-30T08:59:22;96410.63;;;6.14;100.00
36828;BME280;22766;48.042;11.192;2024-01-30T09:01:49;96414.19;;;6.54;97.53
36828;BME280;22766;48.042;11.192;2024-01-30T09:04:32;96423.97;;;6.76;98.67
36828;BME280;22766;48.042;11.192;2024-01-30T09:06:59;96414.13;;;6.96;98.40
36828;BME280;22766;48.042;11.192;2024-01-30T09:09:26;96414.72;;;7.14;96.68
36828;BME280;22766;48.042;11.192;2024-01-30T09:11:53;96421.97;;;7.34;97.90
36828;BME280;22766;48.042;11.192;2024-01-30T09:14:20;96423.38;;;7.52;92.63
36828;BME280;22766;48.042;11.192;2024-01-30T09:16:47;96421.66;;;7.78;90.38
36828;BME280;22766;48.042;11.192;2024-01-30T09:19:15;96419.41;;;7.86;84.96
36828;BME280;22766;48.042;11.192;2024-01-30T09:21:42;96417.59;;;8.13;82.69
36828;BME280;22766;48.042;11.192;2024-01-30T09:24:09;96421.91;;;8.50;83.16
36828;BME280;22766;48.042;11.192;2024-01-30T09:26:38;96436.72;;;8.72;74.06
36828;BME280;22766;48.042;11.192;2024-01-30T09:29:08;96427.38;;;9.30;73.82
36828;BME280;22766;48.042;11.192;2024-01-30T09:31:35;96426.91;;;9.36;69.72
36828;BME280;22766;48.042;11.192;2024-01-30T09:34:02;96419.28;;;9.11;70.03
36828;BME280;22766;48.042;11.192;2024-01-30T09:36:31;96422.53;;;9.26;67.99
36828;BME280;22766;48.042;11.192;2024-01-30T09:38:58;96419.72;;;9.29;67.33
36828;BME280;22766;48.042;11.192;2024-01-30T09:41:25;96424.63;;;9.79;66.40
36828;BME280;22766;48.042;11.192;2024-01-30T09:43:54;96420.66;;;10.32;60.03
36828;BME280;22766;48.042;11.192;2024-01-30T09:46:25;96415.34;;;10.22;59.32
36828;BME280;22766;48.042;11.192;2024-01-30T09:48:55;96415.84;;;10.39;61.28
36828;BME280;22766;48.042;11.192;2024-01-30T09:51:25;96418.41;;;10.16;60.01
36828;BME280;22766;48.042;11.192;2024-01-30T09:53:54;96418.66;;;10.24;61.53
36828;BME280;22766;48.042;11.192;2024-01-30T09:56:21;96418.19;;;10.75;59.48
36828;BME280;22766;48.042;11.192;2024-01-30T09:58:48;96412.94;;;11.30;54.17
36828;BME280;22766;48.042;11.192;2024-01-30T10:01:17;96416.34;;;11.19;54.99
36828;BME280;22766;48.042;11.192;2024-01-30T10:03:46;96421.41;;;11.32;54.04
36828;BME280;22766;48.042;11.192;2024-01-30T10:06:14;96416.75;;;11.78;52.22
36828;BME280;22766;48.042;11.192;2024-01-30T10:08:42;96417.31;;;11.82;50.21
36828;BME280;22766;48.042;11.192;2024-01-30T10:11:10;96419.72;;;12.36;49.68
36828;BME280;22766;48.042;11.192;2024-01-30T10:13:38;96416.13;;;11.86;48.72
36828;BME280;22766;48.042;11.192;2024-01-30T10:16:06;96421.88;;;12.10;49.24
36828;BME280;22766;48.042;11.192;2024-01-30T10:18:33;96423.94;;;12.57;47.73
36828;BME280;22766;48.042;11.192;2024-01-30T10:21:00;96417.09;;;13.55;46.99
36828;BME280;22766;48.042;11.192;2024-01-30T10:23:27;96417.53;;;13.88;44.56
36828;BME280;22766;48.042;11.192;2024-01-30T10:26:02;96413.38;;;14.43;43.25
36828;BME280;22766;48.042;11.192;2024-01-30T10:28:30;96415.81;;;14.45;42.45
36828;BME280;22766;48.042;11.192;2024-01-30T10:30:58;96419.56;;;14.69;41.97
36828;BME280;22766;48.042;11.192;2024-01-30T10:33:30;96415.91;;;15.44;41.01
36828;BME280;22766;48.042;11.192;2024-01-30T10:36:02;96413.94;;;15.28;39.05
36828;BME280;22766;48.042;11.192;2024-01-30T10:38:31;96408.03;;;15.53;40.19
36828;BME280;22766;48.042;11.192;2024-01-30T10:41:00;96408.09;;;15.97;38.87
36828;BME280;22766;48.042;11.192;2024-01-30T10:43:32;96406.56;;;16.55;38.51
36828;BME280;22766;48.042;11.192;2024-01-30T10:46:19;96397.91;;;16.80;36.33
36828;BME280;22766;48.042;11.192;2024-01-30T10:48:54;96394.50;;;17.29;36.30
36828;BME280;22766;48.042;11.192;2024-01-30T10:51:26;96385.03;;;17.36;35.38
36828;BME280;22766;48.042;11.192;2024-01-30T10:53:55;96387.53;;;16.54;35.45
36828;BME280;22766;48.042;11.192;2024-01-30T10:56:25;96386.44;;;17.07;35.55
36828;BME280;22766;48.042;11.192;2024-01-30T10:58:53;96385.31;;;17.17;34.89
36828;BME280;22766;48.042;11.192;2024-01-30T11:01:21;96381.50;;;17.53;33.66
36828;BME280;22766;48.042;11.192;2024-01-30T11:03:53;96377.22;;;17.44;33.81
36828;BME280;22766;48.042;11.192;2024-01-30T11:06:27;96374.66;;;17.68;33.97
36828;BME280;22766;48.042;11.192;2024-01-30T11:09:04;96367.97;;;16.92;33.76
36828;BME280;22766;48.042;11.192;2024-01-30T11:11:55;96368.00;;;16.15;35.04
36828;BME280;22766;48.042;11.192;2024-01-30T11:14:29;96364.38;;;15.65;36.00
36828;BME280;22766;48.042;11.192;2024-01-30T11:16:58;96363.13;;;15.51;36.46
36828;BME280;22766;48.042;11.192;2024-01-30T11:19:26;96364.09;;;15.06;37.42
36828;BME280;22766;48.042;11.192;2024-01-30T11:21:54;96360.56;;;14.79;37.55
36828;BME280;22766;48.042;11.192;2024-01-30T11:24:24;96365.34;;;14.47;38.04
36828;BME280;22766;48.042;11.192;2024-01-30T11:26:58;96363.22;;;14.14;38.41
36828;BME280;22766;48.042;11.192;2024-01-30T11:29:29;96355.25;;;14.25;39.09
36828;BME280;22766;48.042;11.192;2024-01-30T11:31:58;96354.47;;;14.88;38.55
36828;BME280;22766;48.042;11.192;2024-01-30T11:34:25;96359.78;;;14.96;37.61
36828;BME280;22766;48.042;11.192;2024-01-30T11:36:56;96354.97;;;15.19;37.89
36828;BME280;22766;48.042;11.192;2024-01-30T11:39:27;96349.19;;;15.43;36.48
36828;BME280;22766;48.042;11.192;2024-01-30T11:41:55;96353.94;;;15.30;31.12
36828;BME280;22766;48.042;11.192;2024-01-30T11:44:22;96346.59;;;15.78;31.07
36828;BME280;22766;48.042;11.192;2024-01-30T11:46:51;96337.47;;;16.25;31.59
36828;BME280;22766;48.042;11.192;2024-01-30T11:49:19;96341.78;;;16.42;30.14
36828;BME280;22766;48.042;11.192;2024-01-30T11:51:46;96341.59;;;16.10;30.97
36828;BME280;22766;48.042;11.192;2024-01-30T11:54:16;96340.81;;;15.22;33.33
36828;BME280;22766;48.042;11.192;2024-01-30T11:56:43;96341.69;;;16.01;34.27
36828;BME280;22766;48.042;11.192;2024-01-30T11:59:10;96336.03;;;16.31;33.23
36828;BME280;22766;48.042;11.192;2024-01-30T12:01:37;96338.69;;;16.39;33.31
36828;BME280;22766;48.042;11.192;2024-01-30T12:04:05;96331.03;;;15.16;30.90
36828;BME280;22766;48.042;11.192;2024-01-30T12:06:38;96329.72;;;14.84;31.75
36828;BME280;22766;48.042;11.192;2024-01-30T12:09:06;96335.00;;;14.38;32.18
36828;BME280;22766;48.042;11.192;2024-01-30T12:11:44;96327.91;;;14.67;33.20
36828;BME280;22766;48.042;11.192;2024-01-30T12:14:12;96326.06;;;14.77;33.29
36828;BME280;22766;48.042;11.192;2024-01-30T12:16:40;96314.38;;;14.91;33.19
36828;BME280;22766;48.042;11.192;2024-01-30T12:19:08;96322.34;;;14.80;33.22
36828;BME280;22766;48.042;11.192;2024-01-30T12:21:35;96314.66;;;14.88;33.27
36828;BME280;22766;48.042;11.192;2024-01-30T12:24:03;96314.69;;;14.78;33.73
36828;BME280;22766;48.042;11.192;2024-01-30T12:26:30;96309.81;;;14.75;33.66
36828;BME280;22766;48.042;11.192;2024-01-30T12:28:57;96310.16;;;14.80;33.48
36828;BME280;22766;48.042;11.192;2024-01-30T12:31:28;96303.56;;;14.86;33.10
36828;BME280;22766;48.042;11.192;2024-01-30T12:33:56;96298.97;;;14.97;33.33
36828;BME280;22766;48.042;11.192;2024-01-30T12:36:25;96297.97;;;15.43;33.45
36828;BME280;22766;48.042;11.192;2024-01-30T12:38:52;96298.38;;;15.39;34.15
36828;BME280;22766;48.042;11.192;2024-01-30T12:41:20;96299.28;;;15.30;33.55
36828;BME280;22766;48.042;11.192;2024-01-30T12:43:47;96299.88;;;15.24;37.65
36828;BME280;22766;48.042;11.192;2024-01-30T12:46:17;96293.78;;;14.97;37.21
36828;BME280;22766;48.042;11.192;2024-01-30T12:48:44;96293.72;;;15.07;37.74
36828;BME280;22766;48.042;11.192;2024-01-30T12:51:12;96293.19;;;15.04;39.16
36828;BME280;22766;48.042;11.192;2024-01-30T12:53:39;96293.69;;;14.89;39.82